sensor_id;sensor_type;location;lat;lon;timestamp;P1;durP1;ratioP1;P2;durP2;ratioP2
7406;SDS011;3745;56.964;24.128;2023-03-01T00:01:23;5.38;;;2.70;;
7406;SDS011;3745;56.964;24.128;2023-03-01T00:03:50;10.52;;;2.63;;
7406;SDS011;3745;56.964;24.128;2023-03-01T00:06:17;7.25;;;2.28;;
7406;SDS011;3745;56.964;24.128;2023-03-01T00:08:43;8.65;;;2.63;;
7406;SDS011;3745;56.964;24.128;2023-03-01T00:11:16;10.07;;;2.85;;
7406;SDS011;3745;56.964;24.128;2023-03-01T00:13:44;7.70;;;2.70;;
7406;SDS011;3745;56.964;24.128;2023-03-01T00:16:21;8.82;;;3.85;;
7406;SDS011;3745;56.964;24.128;2023-03-01T00:18:48;9.85;;;4.00;;
7406;SDS011;3745;56.964;24.128;2023-03-01T00:21:14;12.25;;;5.10;;
7406;SDS011;3745;56.964;24.128;2023-03-01T00:23:40;16.15;;;6.70;;
7406;SDS011;3745;56.964;24.128;2023-03-01T00:26:07;20.98;;;9.65;;
7406;SDS011;3745;56.964;24.128;2023-03-01T00:28:34;48.03;;;18.23;;
7406;SDS011;3745;56.964;24.128;2023-03-01T00:31:07;36.92;;;14.18;;
7406;SDS011;3745;56.964;24.128;2023-03-01T00:33:43;32.92;;;15.18;;
7406;SDS011;3745;56.964;24.128;2023-03-01T00:36:10;33.40;;;15.13;;
7406;SDS011;3745;56.964;24.128;2023-03-01T00:38:38;27.65;;;9.95;;
7406;SDS011;3745;56.964;24.128;2023-03-01T00:41:07;25.45;;;8.55;;
7406;SDS011;3745;56.964;24.128;2023-03-01T00:43:34;9.18;;;4.75;;
7406;SDS011;3745;56.964;24.128;2023-03-01T00:46:05;10.68;;;4.03;;
7406;SDS011;3745;56.964;24.128;2023-03-01T00:48:33;5.97;;;1.83;;
7406;SDS011;3745;56.964;24.128;2023-03-01T00:51:06;9.27;;;1.80;;
7406;SDS011;3745;56.964;24.128;2023-03-01T00:53:33;4.93;;;1.55;;
7406;SDS011;3745;56.964;24.128;2023-03-01T00:56:00;7.28;;;1.67;;
7406;SDS011;3745;56.964;24.128;2023-03-01T00:58:26;5.63;;;1.23;;
7406;SDS011;3745;56.964;24.128;2023-03-01T01:00:51;4.65;;;1.50;;
7406;SDS011;3745;56.964;24.128;2023-03-01T01:03:20;4.00;;;1.55;;
7406;SDS011;3745;56.964;24.128;2023-03-01T01:05:46;9.40;;;1.63;;
7406;SDS011;3745;56.964;24.128;2023-03-01T01:08:12;6.38;;;1.38;;
7406;SDS011;3745;56.964;24.128;2023-03-01T01:10:38;5.25;;;1.38;;
7406;SDS011;3745;56.964;24.128;2023-03-01T01:13:03;8.45;;;1.65;;
7406;SDS011;3745;56.964;24.128;2023-03-01T01:15:32;5.10;;;1.35;;
7406;SDS011;3745;56.964;24.128;2023-03-01T01:17:59;3.35;;;1.42;;
7406;SDS011;3745;56.964;24.128;2023-03-01T01:20:25;6.85;;;1.27;;
7406;SDS011;3745;56.964;24.128;2023-03-01T01:22:51;7.95;;;1.40;;
7406;SDS011;3745;56.964;24.128;2023-03-01T01:25:17;7.88;;;1.30;;
7406;SDS011;3745;56.964;24.128;2023-03-01T01:27:42;7.38;;;1.52;;
7406;SDS011;3745;56.964;24.128;2023-03-01T01:30:08;8.82;;;1.83;;
7406;SDS011;3745;56.964;24.128;2023-03-01T01:32:34;6.40;;;1.55;;
7406;SDS011;3745;56.964;24.128;2023-03-01T01:35:00;4.13;;;1.63;;
7406;SDS011;3745;56.964;24.128;2023-03-01T01:37:25;2.42;;;1.10;;
7406;SDS011;3745;56.964;24.128;2023-03-01T01:39:56;3.85;;;1.23;;
7406;SDS011;3745;56.964;24.128;2023-03-01T01:42:26;4.05;;;1.38;;
7406;SDS011;3745;56.964;24.128;2023-03-01T01:47:57;8.45;;;1.63;;
7406;SDS011;3745;56.964;24.128;2023-03-01T01:50:28;4.10;;;1.63;;
7406;SDS011;3745;56.964;24.128;2023-03-01T01:53:03;4.88;;;1.50;;
7406;SDS011;3745;56.964;24.128;2023-03-01T01:55:33;8.77;;;1.30;;
7406;SDS011;3745;56.964;24.128;2023-03-01T01:58:04;6.80;;;1.90;;
7406;SDS011;3745;56.964;24.128;2023-03-01T02:00:33;7.03;;;1.45;;
7406;SDS011;3745;56.964;24.128;2023-03-01T02:02:59;5.10;;;1.73;;
7406;SDS011;3745;56.964;24.128;2023-03-01T02:08:18;6.65;;;1.92;;
7406;SDS011;3745;56.964;24.128;2023-03-01T02:10:46;6.38;;;1.42;;
7406;SDS011;3745;56.964;24.128;2023-03-01T02:13:13;7.63;;;1.20;;
7406;SDS011;3745;56.964;24.128;2023-03-01T02:15:39;6.53;;;1.30;;
7406;SDS011;3745;56.964;24.128;2023-03-01T02:18:06;5.30;;;2.22;;
7406;SDS011;3745;56.964;24.128;2023-03-01T02:20:35;8.73;;;1.30;;
7406;SDS011;3745;56.964;24.128;2023-03-01T02:23:20;4.63;;;1.50;;
7406;SDS011;3745;56.964;24.128;2023-03-01T02:26:01;10.15;;;1.40;;
7406;SDS011;3745;56.964;24.128;2023-03-01T02:28:31;7.78;;;1.42;;
7406;SDS011;3745;56.964;24.128;2023-03-01T02:30:58;7.65;;;1.77;;
7406;SDS011;3745;56.964;24.128;2023-03-01T02:33:42;11.05;;;1.67;;
7406;SDS011;3745;56.964;24.128;2023-03-01T02:36:12;4.43;;;1.38;;
7406;SDS011;3745;56.964;24.128;2023-03-01T02:38:44;6.57;;;1.40;;
7406;SDS011;3745;56.964;24.128;2023-03-01T02:41:12;6.53;;;1.67;;
7406;SDS011;3745;56.964;24.128;2023-03-01T02:43:40;4.90;;;2.00;;
7406;SDS011;3745;56.964;24.128;2023-03-01T02:46:19;5.13;;;1.65;;
7406;SDS011;3745;56.964;24.128;2023-03-01T02:48:49;7.65;;;1.85;;
7406;SDS011;3745;56.964;24.128;2023-03-01T02:57:29;7.60;;;2.05;;
7406;SDS011;3745;56.964;24.128;2023-03-01T02:59:57;10.65;;;2.33;;
7406;SDS011;3745;56.964;24.128;2023-03-01T03:02:32;7.50;;;1.75;;
7406;SDS011;3745;56.964;24.128;2023-03-01T03:05:09;5.65;;;2.15;;
7406;SDS011;3745;56.964;24.128;2023-03-01T03:07:41;5.88;;;1.70;;
7406;SDS011;3745;56.964;24.128;2023-03-01T03:10:09;9.30;;;1.60;;
7406;SDS011;3745;56.964;24.128;2023-03-01T03:12:37;6.18;;;1.83;;
7406;SDS011;3745;56.964;24.128;2023-03-01T03:15:05;5.53;;;1.60;;
7406;SDS011;3745;56.964;24.128;2023-03-01T03:17:37;6.30;;;1.63;;
7406;SDS011;3745;56.964;24.128;2023-03-01T03:20:05;6.75;;;2.00;;
7406;SDS011;3745;56.964;24.128;2023-03-01T03:22:36;8.75;;;2.15;;
7406;SDS011;3745;56.964;24.128;2023-03-01T03:25:06;7.32;;;1.90;;
7406;SDS011;3745;56.964;24.128;2023-03-01T03:27:35;8.63;;;2.42;;
7406;SDS011;3745;56.964;24.128;2023-03-01T03:30:03;8.10;;;1.67;;
7406;SDS011;3745;56.964;24.128;2023-03-01T03:32:37;6.10;;;1.30;;
7406;SDS011;3745;56.964;24.128;2023-03-01T03:35:04;5.80;;;1.65;;
7406;SDS011;3745;56.964;24.128;2023-03-01T03:37:38;7.20;;;1.52;;
7406;SDS011;3745;56.964;24.128;2023-03-01T03:40:24;4.28;;;1.17;;
7406;SDS011;3745;56.964;24.128;2023-03-01T03:42:50;3.08;;;1.58;;
7406;SDS011;3745;56.964;24.128;2023-03-01T03:45:16;7.07;;;1.77;;
7406;SDS011;3745;56.964;24.128;2023-03-01T03:47:42;8.07;;;1.73;;
7406;SDS011;3745;56.964;24.128;2023-03-01T03:50:13;4.00;;;1.25;;
7406;SDS011;3745;56.964;24.128;2023-03-01T03:52:40;5.35;;;1.38;;
7406;SDS011;3745;56.964;24.128;2023-03-01T03:55:06;7.32;;;2.08;;
7406;SDS011;3745;56.964;24.128;2023-03-01T03:57:34;8.77;;;1.75;;
7406;SDS011;3745;56.964;24.128;2023-03-01T04:00:00;3.65;;;1.75;;
7406;SDS011;3745;56.964;24.128;2023-03-01T04:02:28;10.40;;;1.48;;
7406;SDS011;3745;56.964;24.128;2023-03-01T04:04:54;7.20;;;2.22;;
7406;SDS011;3745;56.964;24.128;2023-03-01T04:07:20;7.40;;;2.55;;
7406;SDS011;3745;56.964;24.128;2023-03-01T04:09:45;8.52;;;4.43;;
7406;SDS011;3745;56.964;24.128;2023-03-01T04:12:11;8.48;;;3.50;;
7406;SDS011;3745;56.964;24.128;2023-03-01T04:14:36;17.65;;;5.13;;
7406;SDS011;3745;56.964;24.128;2023-03-01T04:17:02;9.40;;;2.75;;
7406;SDS011;3745;56.964;24.128;2023-03-01T04:19:31;8.50;;;2.67;;
7406;SDS011;3745;56.964;24.128;2023-03-01T04:22:01;6.63;;;1.90;;
7406;SDS011;3745;56.964;24.128;2023-03-01T04:24:37;4.93;;;1.77;;
7406;SDS011;3745;56.964;24.128;2023-03-01T04:27:02;8.23;;;1.90;;
7406;SDS011;3745;56.964;24.128;2023-03-01T04:29:28;7.10;;;1.88;;
7406;SDS011;3745;56.964;24.128;2023-03-01T04:31:53;4.32;;;1.55;;
7406;SDS011;3745;56.964;24.128;2023-03-01T04:34:19;5.72;;;2.45;;
7406;SDS011;3745;56.964;24.128;2023-03-01T04:36:45;9.05;;;1.67;;
7406;SDS011;3745;56.964;24.128;2023-03-01T04:39:11;6.47;;;1.67;;
7406;SDS011;3745;56.964;24.128;2023-03-01T04:41:39;4.05;;;1.80;;
7406;SDS011;3745;56.964;24.128;2023-03-01T04:44:07;7.03;;;1.67;;
7406;SDS011;3745;56.964;24.128;2023-03-01T04:46:34;8.35;;;1.92;;
7406;SDS011;3745;56.964;24.128;2023-03-01T04:49:00;11.07;;;1.67;;
7406;SDS011;3745;56.964;24.128;2023-03-01T04:51:27;8.30;;;1.70;;
7406;SDS011;3745;56.964;24.128;2023-03-01T04:53:53;5.85;;;1.63;;
7406;SDS011;3745;56.964;24.128;2023-03-01T04:56:18;6.75;;;1.83;;
7406;SDS011;3745;56.964;24.128;2023-03-01T04:58:44;8.38;;;1.83;;
7406;SDS011;3745;56.964;24.128;2023-03-01T05:01:15;9.20;;;2.55;;
7406;SDS011;3745;56.964;24.128;2023-03-01T05:03:44;7.75;;;2.22;;
7406;SDS011;3745;56.964;24.128;2023-03-01T05:06:11;8.30;;;2.85;;
7406;SDS011;3745;56.964;24.128;2023-03-01T05:08:38;7.07;;;2.35;;
7406;SDS011;3745;56.964;24.128;2023-03-01T05:11:04;4.20;;;2.42;;
7406;SDS011;3745;56.964;24.128;2023-03-01T05:13:30;5.65;;;2.30;;
7406;SDS011;3745;56.964;24.128;2023-03-01T05:15:58;5.88;;;3.47;;
7406;SDS011;3745;56.964;24.128;2023-03-01T05:18:25;3.53;;;2.25;;
7406;SDS011;3745;56.964;24.128;2023-03-01T05:20:52;7.13;;;2.80;;
7406;SDS011;3745;56.964;24.128;2023-03-01T05:23:21;6.97;;;3.33;;
7406;SDS011;3745;56.964;24.128;2023-03-01T05:25:47;6.97;;;3.60;;
7406;SDS011;3745;56.964;24.128;2023-03-01T05:28:14;6.35;;;2.20;;
7406;SDS011;3745;56.964;24.128;2023-03-01T05:30:41;5.28;;;2.25;;
7406;SDS011;3745;56.964;24.128;2023-03-01T05:33:07;6.07;;;1.90;;
7406;SDS011;3745;56.964;24.128;2023-03-01T05:35:41;7.00;;;2.38;;
7406;SDS011;3745;56.964;24.128;2023-03-01T05:38:08;4.55;;;1.90;;
7406;SDS011;3745;56.964;24.128;2023-03-01T05:40:38;7.38;;;1.67;;
7406;SDS011;3745;56.964;24.128;2023-03-01T05:43:04;8.43;;;1.58;;
7406;SDS011;3745;56.964;24.128;2023-03-01T05:45:30;9.98;;;2.67;;
7406;SDS011;3745;56.964;24.128;2023-03-01T05:48:00;7.50;;;1.92;;
7406;SDS011;3745;56.964;24.128;2023-03-01T05:50:26;8.88;;;2.40;;
7406;SDS011;3745;56.964;24.128;2023-03-01T05:52:58;9.52;;;2.78;;
7406;SDS011;3745;56.964;24.128;2023-03-01T05:55:26;7.82;;;2.88;;
7406;SDS011;3745;56.964;24.128;2023-03-01T05:57:53;4.93;;;3.53;;
7406;SDS011;3745;56.964;24.128;2023-03-01T06:00:20;9.48;;;3.13;;
7406;SDS011;3745;56.964;24.128;2023-03-01T06:02:49;5.85;;;2.97;;
7406;SDS011;3745;56.964;24.128;2023-03-01T06:05:17;10.48;;;2.13;;
7406;SDS011;3745;56.964;24.128;2023-03-01T06:07:43;4.30;;;2.20;;
7406;SDS011;3745;56.964;24.128;2023-03-01T06:10:09;8.10;;;2.05;;
7406;SDS011;3745;56.964;24.128;2023-03-01T06:12:37;7.68;;;1.70;;
7406;SDS011;3745;56.964;24.128;2023-03-01T06:15:04;4.72;;;1.60;;
7406;SDS011;3745;56.964;24.128;2023-03-01T06:17:31;8.45;;;1.55;;
7406;SDS011;3745;56.964;24.128;2023-03-01T06:20:07;6.85;;;1.70;;
7406;SDS011;3745;56.964;24.128;2023-03-01T06:22:35;6.80;;;2.00;;
7406;SDS011;3745;56.964;24.128;2023-03-01T06:25:00;5.75;;;1.95;;
7406;SDS011;3745;56.964;24.128;2023-03-01T06:27:26;5.43;;;1.67;;
7406;SDS011;3745;56.964;24.128;2023-03-01T06:29:51;7.80;;;1.70;;
7406;SDS011;3745;56.964;24.128;2023-03-01T06:32:17;7.18;;;1.83;;
7406;SDS011;3745;56.964;24.128;2023-03-01T06:34:43;8.57;;;1.70;;
7406;SDS011;3745;56.964;24.128;2023-03-01T06:37:09;7.88;;;2.00;;
7406;SDS011;3745;56.964;24.128;2023-03-01T06:39:34;7.10;;;1.70;;
7406;SDS011;3745;56.964;24.128;2023-03-01T06:42:00;6.57;;;2.05;;
7406;SDS011;3745;56.964;24.128;2023-03-01T06:44:26;6.15;;;1.90;;
7406;SDS011;3745;56.964;24.128;2023-03-01T06:46:52;6.50;;;2.15;;
7406;SDS011;3745;56.964;24.128;2023-03-01T06:49:17;7.53;;;2.08;;
7406;SDS011;3745;56.964;24.128;2023-03-01T06:51:43;7.32;;;1.85;;
7406;SDS011;3745;56.964;24.128;2023-03-01T06:54:10;7.45;;;1.77;;
7406;SDS011;3745;56.964;24.128;2023-03-01T06:56:35;6.22;;;1.73;;
7406;SDS011;3745;56.964;24.128;2023-03-01T06:59:01;6.65;;;1.98;;
7406;SDS011;3745;56.964;24.128;2023-03-01T07:01:27;6.90;;;1.83;;
7406;SDS011;3745;56.964;24.128;2023-03-01T07:03:53;14.13;;;2.20;;
7406;SDS011;3745;56.964;24.128;2023-03-01T07:06:19;2.45;;;1.48;;
7406;SDS011;3745;56.964;24.128;2023-03-01T07:08:46;2.65;;;1.25;;
7406;SDS011;3745;56.964;24.128;2023-03-01T07:11:11;4.88;;;1.90;;
7406;SDS011;3745;56.964;24.128;2023-03-01T07:13:37;5.57;;;2.00;;
7406;SDS011;3745;56.964;24.128;2023-03-01T07:16:03;7.22;;;2.80;;
7406;SDS011;3745;56.964;24.128;2023-03-01T07:18:29;9.57;;;4.72;;
7406;SDS011;3745;56.964;24.128;2023-03-01T07:20:54;11.70;;;5.18;;
7406;SDS011;3745;56.964;24.128;2023-03-01T07:23:20;9.52;;;3.90;;
7406;SDS011;3745;56.964;24.128;2023-03-01T07:25:52;12.68;;;5.30;;
7406;SDS011;3745;56.964;24.128;2023-03-01T07:28:19;20.10;;;6.18;;
7406;SDS011;3745;56.964;24.128;2023-03-01T07:30:45;14.57;;;7.00;;
7406;SDS011;3745;56.964;24.128;2023-03-01T07:33:11;16.42;;;8.00;;
7406;SDS011;3745;56.964;24.128;2023-03-01T07:35:36;13.65;;;8.25;;
7406;SDS011;3745;56.964;24.128;2023-03-01T07:38:05;20.55;;;7.80;;
7406;SDS011;3745;56.964;24.128;2023-03-01T07:40:31;12.98;;;7.20;;
7406;SDS011;3745;56.964;24.128;2023-03-01T07:42:57;14.93;;;8.38;;
7406;SDS011;3745;56.964;24.128;2023-03-01T07:45:27;18.70;;;8.57;;
7406;SDS011;3745;56.964;24.128;2023-03-01T07:47:54;21.38;;;9.05;;
7406;SDS011;3745;56.964;24.128;2023-03-01T07:50:20;26.27;;;10.85;;
7406;SDS011;3745;56.964;24.128;2023-03-01T07:52:47;22.75;;;11.38;;
7406;SDS011;3745;56.964;24.128;2023-03-01T07:55:14;30.00;;;11.70;;
7406;SDS011;3745;56.964;24.128;2023-03-01T07:57:41;29.50;;;12.48;;
7406;SDS011;3745;56.964;24.128;2023-03-01T08:00:08;29.08;;;12.80;;
7406;SDS011;3745;56.964;24.128;2023-03-01T08:02:35;27.15;;;14.32;;
7406;SDS011;3745;56.964;24.128;2023-03-01T08:05:01;33.38;;;15.68;;
7406;SDS011;3745;56.964;24.128;2023-03-01T08:07:27;37.53;;;18.70;;
7406;SDS011;3745;56.964;24.128;2023-03-01T08:09:52;35.78;;;19.23;;
7406;SDS011;3745;56.964;24.128;2023-03-01T08:12:18;43.97;;;22.40;;
7406;SDS011;3745;56.964;24.128;2023-03-01T08:14:44;41.75;;;21.52;;
7406;SDS011;3745;56.964;24.128;2023-03-01T08:17:13;40.55;;;21.17;;
7406;SDS011;3745;56.964;24.128;2023-03-01T08:19:39;34.65;;;19.95;;
7406;SDS011;3745;56.964;24.128;2023-03-01T08:22:05;30.88;;;18.20;;
7406;SDS011;3745;56.964;24.128;2023-03-01T08:24:30;37.08;;;18.38;;
7406;SDS011;3745;56.964;24.128;2023-03-01T08:26:56;33.67;;;14.68;;
7406;SDS011;3745;56.964;24.128;2023-03-01T08:29:22;28.30;;;13.50;;
7406;SDS011;3745;56.964;24.128;2023-03-01T08:31:49;24.52;;;12.45;;
7406;SDS011;3745;56.964;24.128;2023-03-01T08:34:16;27.98;;;10.60;;
7406;SDS011;3745;56.964;24.128;2023-03-01T08:36:44;20.95;;;10.45;;
7406;SDS011;3745;56.964;24.128;2023-03-01T08:39:11;29.25;;;11.15;;
7406;SDS011;3745;56.964;24.128;2023-03-01T08:41:39;19.88;;;6.63;;
7406;SDS011;3745;56.964;24.128;2023-03-01T08:44:05;11.27;;;5.53;;
7406;SDS011;3745;56.964;24.128;2023-03-01T08:46:32;8.38;;;4.40;;
7406;SDS011;3745;56.964;24.128;2023-03-01T08:49:07;12.82;;;5.47;;
7406;SDS011;3745;56.964;24.128;2023-03-01T08:51:34;13.50;;;3.95;;
7406;SDS011;3745;56.964;24.128;2023-03-01T08:54:06;7.15;;;3.80;;
7406;SDS011;3745;56.964;24.128;2023-03-01T08:56:35;17.70;;;4.20;;
7406;SDS011;3745;56.964;24.128;2023-03-01T08:59:00;12.50;;;4.53;;
7406;SDS011;3745;56.964;24.128;2023-03-01T09:01:26;10.40;;;5.88;;
7406;SDS011;3745;56.964;24.128;2023-03-01T09:03:52;15.20;;;7.05;;
7406;SDS011;3745;56.964;24.128;2023-03-01T09:06:17;13.52;;;5.20;;
7406;SDS011;3745;56.964;24.128;2023-03-01T09:08:44;7.95;;;4.43;;
7406;SDS011;3745;56.964;24.128;2023-03-01T09:11:13;9.90;;;5.32;;
7406;SDS011;3745;56.964;24.128;2023-03-01T09:13:41;14.27;;;8.57;;
7406;SDS011;3745;56.964;24.128;2023-03-01T09:16:06;21.05;;;10.73;;
7406;SDS011;3745;56.964;24.128;2023-03-01T09:18:34;19.95;;;9.60;;
7406;SDS011;3745;56.964;24.128;2023-03-01T09:21:02;19.25;;;10.07;;
7406;SDS011;3745;56.964;24.128;2023-03-01T09:23:32;21.92;;;10.10;;
7406;SDS011;3745;56.964;24.128;2023-03-01T09:26:03;20.27;;;10.18;;
7406;SDS011;3745;56.964;24.128;2023-03-01T09:28:34;28.30;;;15.55;;
7406;SDS011;3745;56.964;24.128;2023-03-01T09:31:01;28.65;;;15.32;;
7406;SDS011;3745;56.964;24.128;2023-03-01T09:33:28;22.30;;;12.02;;
7406;SDS011;3745;56.964;24.128;2023-03-01T09:35:58;24.20;;;11.95;;
7406;SDS011;3745;56.964;24.128;2023-03-01T09:38:32;27.95;;;13.40;;
7406;SDS011;3745;56.964;24.128;2023-03-01T09:40:59;23.92;;;13.35;;
7406;SDS011;3745;56.964;24.128;2023-03-01T09:43:35;24.92;;;14.32;;
7406;SDS011;3745;56.964;24.128;2023-03-01T09:46:07;27.23;;;14.93;;
7406;SDS011;3745;56.964;24.128;2023-03-01T09:48:46;28.00;;;15.55;;
7406;SDS011;3745;56.964;24.128;2023-03-01T09:51:22;25.05;;;14.68;;
7406;SDS011;3745;56.964;24.128;2023-03-01T09:53:52;29.67;;;15.65;;
7406;SDS011;3745;56.964;24.128;2023-03-01T10:01:55;41.10;;;22.92;;
7406;SDS011;3745;56.964;24.128;2023-03-01T10:10:07;53.33;;;31.67;;
7406;SDS011;3745;56.964;24.128;2023-03-01T10:12:37;51.90;;;28.40;;
7406;SDS011;3745;56.964;24.128;2023-03-01T10:17:54;44.30;;;23.40;;
7406;SDS011;3745;56.964;24.128;2023-03-01T10:20:25;47.00;;;21.20;;
7406;SDS011;3745;56.964;24.128;2023-03-01T10:22:55;41.60;;;20.73;;
7406;SDS011;3745;56.964;24.128;2023-03-01T10:25:36;66.38;;;30.58;;
7406;SDS011;3745;56.964;24.128;2023-03-01T10:31:12;70.10;;;36.72;;
7406;SDS011;3745;56.964;24.128;2023-03-01T10:33:40;75.40;;;34.47;;
7406;SDS011;3745;56.964;24.128;2023-03-01T10:36:06;74.70;;;37.55;;
7406;SDS011;3745;56.964;24.128;2023-03-01T10:38:46;54.83;;;26.15;;
7406;SDS011;3745;56.964;24.128;2023-03-01T10:41:14;39.88;;;21.20;;
7406;SDS011;3745;56.964;24.128;2023-03-01T10:43:43;28.63;;;13.32;;
7406;SDS011;3745;56.964;24.128;2023-03-01T10:46:30;18.50;;;10.13;;
7406;SDS011;3745;56.964;24.128;2023-03-01T10:49:20;21.45;;;12.10;;
7406;SDS011;3745;56.964;24.128;2023-03-01T10:51:52;29.52;;;16.25;;
7406;SDS011;3745;56.964;24.128;2023-03-01T10:54:20;21.35;;;11.80;;
7406;SDS011;3745;56.964;24.128;2023-03-01T10:57:22;13.18;;;8.85;;
7406;SDS011;3745;56.964;24.128;2023-03-01T10:59:51;13.93;;;7.72;;
7406;SDS011;3745;56.964;24.128;2023-03-01T11:02:29;5.30;;;4.50;;
7406;SDS011;3745;56.964;24.128;2023-03-01T11:05:28;6.93;;;2.05;;
7406;SDS011;3745;56.964;24.128;2023-03-01T11:07:57;4.35;;;1.80;;
7406;SDS011;3745;56.964;24.128;2023-03-01T11:12:53;8.23;;;2.53;;
7406;SDS011;3745;56.964;24.128;2023-03-01T11:15:30;4.72;;;1.52;;
7406;SDS011;3745;56.964;24.128;2023-03-01T11:17:56;2.20;;;1.20;;
7406;SDS011;3745;56.964;24.128;2023-03-01T11:20:35;3.67;;;1.33;;
7406;SDS011;3745;56.964;24.128;2023-03-01T11:23:06;3.88;;;1.23;;
7406;SDS011;3745;56.964;24.128;2023-03-01T11:25:37;6.45;;;1.15;;
7406;SDS011;3745;56.964;24.128;2023-03-01T11:28:09;1.65;;;1.23;;
7406;SDS011;3745;56.964;24.128;2023-03-01T11:38:57;3.83;;;1.38;;
7406;SDS011;3745;56.964;24.128;2023-03-01T11:41:31;5.88;;;1.58;;
7406;SDS011;3745;56.964;24.128;2023-03-01T11:44:01;2.63;;;0.70;;
7406;SDS011;3745;56.964;24.128;2023-03-01T11:46:41;3.13;;;1.30;;
7406;SDS011;3745;56.964;24.128;2023-03-01T12:00:31;4.15;;;1.17;;
7406;SDS011;3745;56.964;24.128;2023-03-01T12:03:13;5.30;;;1.00;;
7406;SDS011;3745;56.964;24.128;2023-03-01T12:08:37;3.65;;;1.30;;
7406;SDS011;3745;56.964;24.128;2023-03-01T12:19:40;4.82;;;1.02;;
7406;SDS011;3745;56.964;24.128;2023-03-01T12:22:13;5.53;;;1.30;;
7406;SDS011;3745;56.964;24.128;2023-03-01T12:30:49;4.13;;;1.00;;
7406;SDS011;3745;56.964;24.128;2023-03-01T12:33:56;8.88;;;1.48;;
7406;SDS011;3745;56.964;24.128;2023-03-01T12:39:49;3.42;;;1.20;;
7406;SDS011;3745;56.964;24.128;2023-03-01T12:42:35;2.50;;;1.27;;
7406;SDS011;3745;56.964;24.128;2023-03-01T12:48:02;3.30;;;0.90;;
7406;SDS011;3745;56.964;24.128;2023-03-01T12:53:07;3.67;;;1.40;;
7406;SDS011;3745;56.964;24.128;2023-03-01T12:55:44;3.45;;;1.17;;
7406;SDS011;3745;56.964;24.128;2023-03-01T13:04:22;2.05;;;1.20;;
7406;SDS011;3745;56.964;24.128;2023-03-01T13:09:48;1.33;;;1.08;;
7406;SDS011;3745;56.964;24.128;2023-03-01T13:15:27;6.18;;;0.95;;
7406;SDS011;3745;56.964;24.128;2023-03-01T13:17:56;2.08;;;1.15;;
7406;SDS011;3745;56.964;24.128;2023-03-01T13:20:46;1.80;;;1.20;;
7406;SDS011;3745;56.964;24.128;2023-03-01T13:23:11;6.15;;;1.70;;
7406;SDS011;3745;56.964;24.128;2023-03-01T13:31:06;1.77;;;1.50;;
7406;SDS011;3745;56.964;24.128;2023-03-01T13:33:37;2.70;;;1.25;;
7406;SDS011;3745;56.964;24.128;2023-03-01T13:36:11;2.38;;;1.33;;
7406;SDS011;3745;56.964;24.128;2023-03-01T13:42:03;4.60;;;1.63;;
7406;SDS011;3745;56.964;24.128;2023-03-01T13:44:48;1.80;;;1.38;;
7406;SDS011;3745;56.964;24.128;2023-03-01T13:47:16;6.70;;;1.90;;
7406;SDS011;3745;56.964;24.128;2023-03-01T13:49:47;4.70;;;2.00;;
7406;SDS011;3745;56.964;24.128;2023-03-01T13:54:50;2.90;;;2.10;;
7406;SDS011;3745;56.964;24.128;2023-03-01T13:57:19;3.63;;;2.25;;
7406;SDS011;3745;56.964;24.128;2023-03-01T13:59:50;5.72;;;3.08;;
7406;SDS011;3745;56.964;24.128;2023-03-01T14:02:15;3.20;;;2.83;;
7406;SDS011;3745;56.964;24.128;2023-03-01T14:04:41;5.13;;;2.83;;
7406;SDS011;3745;56.964;24.128;2023-03-01T14:07:20;6.53;;;1.55;;
7406;SDS011;3745;56.964;24.128;2023-03-01T14:09:52;2.72;;;1.30;;
7406;SDS011;3745;56.964;24.128;2023-03-01T14:15:04;6.47;;;1.02;;
7406;SDS011;3745;56.964;24.128;2023-03-01T14:17:52;1.98;;;0.95;;
7406;SDS011;3745;56.964;24.128;2023-03-01T14:20:28;1.05;;;0.90;;
7406;SDS011;3745;56.964;24.128;2023-03-01T14:22:58;9.50;;;1.00;;
7406;SDS011;3745;56.964;24.128;2023-03-01T14:25:28;2.50;;;0.77;;
7406;SDS011;3745;56.964;24.128;2023-03-01T14:30:34;2.58;;;1.00;;
7406;SDS011;3745;56.964;24.128;2023-03-01T14:33:04;2.85;;;1.00;;
7406;SDS011;3745;56.964;24.128;2023-03-01T14:35:35;4.40;;;0.80;;
7406;SDS011;3745;56.964;24.128;2023-03-01T14:38:02;2.72;;;0.88;;
7406;SDS011;3745;56.964;24.128;2023-03-01T14:42:56;2.80;;;0.80;;
7406;SDS011;3745;56.964;24.128;2023-03-01T14:45:25;2.65;;;1.00;;
7406;SDS011;3745;56.964;24.128;2023-03-01T14:47:53;3.22;;;1.20;;
7406;SDS011;3745;56.964;24.128;2023-03-01T14:50:23;3.63;;;0.88;;
7406;SDS011;3745;56.964;24.128;2023-03-01T14:52:52;4.50;;;1.20;;
7406;SDS011;3745;56.964;24.128;2023-03-01T14:55:23;1.55;;;1.00;;
7406;SDS011;3745;56.964;24.128;2023-03-01T14:57:54;1.83;;;0.80;;
7406;SDS011;3745;56.964;24.128;2023-03-01T15:00:22;4.95;;;1.05;;
7406;SDS011;3745;56.964;24.128;2023-03-01T15:02:52;1.58;;;0.80;;
7406;SDS011;3745;56.964;24.128;2023-03-01T15:05:41;1.92;;;0.90;;
7406;SDS011;3745;56.964;24.128;2023-03-01T15:08:15;4.13;;;0.93;;
7406;SDS011;3745;56.964;24.128;2023-03-01T15:11:00;4.72;;;1.25;;
7406;SDS011;3745;56.964;24.128;2023-03-01T15:13:39;4.57;;;1.08;;
7406;SDS011;3745;56.964;24.128;2023-03-01T15:16:27;2.58;;;0.90;;
7406;SDS011;3745;56.964;24.128;2023-03-01T15:18:54;1.85;;;0.93;;
7406;SDS011;3745;56.964;24.128;2023-03-01T15:21:23;1.42;;;1.00;;
7406;SDS011;3745;56.964;24.128;2023-03-01T15:26:36;3.95;;;1.38;;
7406;SDS011;3745;56.964;24.128;2023-03-01T15:29:05;1.90;;;1.10;;
7406;SDS011;3745;56.964;24.128;2023-03-01T15:31:53;1.40;;;1.08;;
7406;SDS011;3745;56.964;24.128;2023-03-01T15:34:23;3.50;;;1.35;;
7406;SDS011;3745;56.964;24.128;2023-03-01T15:37:00;3.47;;;1.42;;
7406;SDS011;3745;56.964;24.128;2023-03-01T15:45:07;5.07;;;2.03;;
7406;SDS011;3745;56.964;24.128;2023-03-01T15:47:46;2.65;;;1.98;;
7406;SDS011;3745;56.964;24.128;2023-03-01T15:50:21;6.07;;;1.65;;
7406;SDS011;3745;56.964;24.128;2023-03-01T15:52:49;3.60;;;2.45;;
7406;SDS011;3745;56.964;24.128;2023-03-01T15:57:49;4.07;;;2.40;;
7406;SDS011;3745;56.964;24.128;2023-03-01T16:00:21;4.75;;;2.05;;
7406;SDS011;3745;56.964;24.128;2023-03-01T16:02:51;5.10;;;1.98;;
7406;SDS011;3745;56.964;24.128;2023-03-01T16:05:19;9.52;;;2.15;;
7406;SDS011;3745;56.964;24.128;2023-03-01T16:07:49;7.53;;;2.60;;
7406;SDS011;3745;56.964;24.128;2023-03-01T16:10:16;2.92;;;2.10;;
7406;SDS011;3745;56.964;24.128;2023-03-01T16:12:42;7.68;;;2.10;;
7406;SDS011;3745;56.964;24.128;2023-03-01T16:15:14;3.10;;;1.70;;
7406;SDS011;3745;56.964;24.128;2023-03-01T16:17:44;3.10;;;1.98;;
7406;SDS011;3745;56.964;24.128;2023-03-01T16:20:09;5.63;;;2.38;;
7406;SDS011;3745;56.964;24.128;2023-03-01T16:22:36;5.20;;;2.45;;
7406;SDS011;3745;56.964;24.128;2023-03-01T16:25:01;4.35;;;2.20;;
7406;SDS011;3745;56.964;24.128;2023-03-01T16:27:27;4.60;;;2.60;;
7406;SDS011;3745;56.964;24.128;2023-03-01T16:29:53;7.45;;;2.40;;
7406;SDS011;3745;56.964;24.128;2023-03-01T16:32:19;3.72;;;2.17;;
7406;SDS011;3745;56.964;24.128;2023-03-01T16:34:45;3.30;;;1.77;;
7406;SDS011;3745;56.964;24.128;2023-03-01T16:37:14;3.10;;;2.10;;
7406;SDS011;3745;56.964;24.128;2023-03-01T16:39:40;4.75;;;2.25;;
7406;SDS011;3745;56.964;24.128;2023-03-01T16:42:05;7.75;;;1.98;;
7406;SDS011;3745;56.964;24.128;2023-03-01T16:44:31;9.57;;;2.55;;
7406;SDS011;3745;56.964;24.128;2023-03-01T16:46:56;6.57;;;2.53;;
7406;SDS011;3745;56.964;24.128;2023-03-01T16:49:22;4.75;;;2.10;;
7406;SDS011;3745;56.964;24.128;2023-03-01T16:51:47;5.47;;;2.10;;
7406;SDS011;3745;56.964;24.128;2023-03-01T16:54:13;5.32;;;2.08;;
7406;SDS011;3745;56.964;24.128;2023-03-01T16:56:38;4.22;;;2.03;;
7406;SDS011;3745;56.964;24.128;2023-03-01T16:59:04;6.27;;;2.63;;
7406;SDS011;3745;56.964;24.128;2023-03-01T17:01:32;6.38;;;2.70;;
7406;SDS011;3745;56.964;24.128;2023-03-01T17:04:06;6.75;;;2.70;;
7406;SDS011;3745;56.964;24.128;2023-03-01T17:06:32;4.72;;;3.08;;
7406;SDS011;3745;56.964;24.128;2023-03-01T17:08:58;9.65;;;3.05;;